sensor_id;sensor_type;location;lat;lon;timestamp;temperature;humidity
17988;DHT22;9119;50.932;5.342;2023-07-22T00:01:14;15.70;99.90
17988;DHT22;9119;50.932;5.342;2023-07-22T00:03:40;15.70;99.90
17988;DHT22;9119;50.932;5.342;2023-07-22T00:06:06;15.70;99.90
17988;DHT22;9119;50.932;5.342;2023-07-22T00:08:33;15.70;99.90
17988;DHT22;9119;50.932;5.342;2023-07-22T00:10:59;15.70;99.90
17988;DHT22;9119;50.932;5.342;2023-07-22T00:13:25;15.70;99.90
17988;DHT22;9119;50.932;5.342;2023-07-22T00:15:54;15.80;99.90
17988;DHT22;9119;50.932;5.342;2023-07-22T00:18:20;15.90;99.90
17988;DHT22;9119;50.932;5.342;2023-07-22T00:20:46;15.90;99.90
17988;DHT22;9119;50.932;5.342;2023-07-22T00:23:11;15.90;99.90
17988;DHT22;9119;50.932;5.342;2023-07-22T00:25:37;16.00;99.90
17988;DHT22;9119;50.932;5.342;2023-07-22T00:28:03;16.10;99.90
17988;DHT22;9119;50.932;5.342;2023-07-22T00:30:32;16.30;99.90
17988;DHT22;9119;50.932;5.342;2023-07-22T00:32:57;16.30;99.90
17988;DHT22;9119;50.932;5.342;2023-07-22T00:35:23;16.20;99.90
17988;DHT22;9119;50.932;5.342;2023-07-22T00:37:49;16.20;99.90
17988;DHT22;9119;50.932;5.342;2023-07-22T00:40:15;16.20;99.90
17988;DHT22;9119;50.932;5.342;2023-07-22T00:42:41;16.00;99.90
17988;DHT22;9119;50.932;5.342;2023-07-22T00:45:07;16.00;99.90
17988;DHT22;9119;50.932;5.342;2023-07-22T00:47:35;16.10;99.90
17988;DHT22;9119;50.932;5.342;2023-07-22T00:50:04;16.20;99.90
17988;DHT22;9119;50.932;5.342;2023-07-22T00:52:35;16.10;99.90
17988;DHT22;9119;50.932;5.342;2023-07-22T00:55:01;16.10;99.90
17988;DHT22;9119;50.932;5.342;2023-07-22T00:57:28;16.10;99.90
17988;DHT22;9119;50.932;5.342;2023-07-22T00:59:54;16.20;99.90
17988;DHT22;9119;50.932;5.342;2023-07-22T01:02:20;16.20;99.90
17988;DHT22;9119;50.932;5.342;2023-07-22T01:04:46;16.10;99.90
17988;DHT22;9119;50.932;5.342;2023-07-22T01:07:12;15.90;99.90
17988;DHT22;9119;50.932;5.342;2023-07-22T01:09:43;15.70;99.90
17988;DHT22;9119;50.932;5.342;2023-07-22T01:12:09;15.60;99.90
17988;DHT22;9119;50.932;5.342;2023-07-22T01:14:36;15.40;99.90
17988;DHT22;9119;50.932;5.342;2023-07-22T01:17:03;15.40;99.90
17988;DHT22;9119;50.932;5.342;2023-07-22T01:19:31;15.30;99.90
17988;DHT22;9119;50.932;5.342;2023-07-22T01:22:01;15.20;99.90
17988;DHT22;9119;50.932;5.342;2023-07-22T01:24:28;15.20;99.90
17988;DHT22;9119;50.932;5.342;2023-07-22T01:26:54;15.20;99.90
17988;DHT22;9119;50.932;5.342;2023-07-22T01:29:24;15.20;99.90
17988;DHT22;9119;50.932;5.342;2023-07-22T01:31:52;15.10;99.90
17988;DHT22;9119;50.932;5.342;2023-07-22T01:34:18;15.10;99.90
17988;DHT22;9119;50.932;5.342;2023-07-22T01:36:45;15.10;99.90
17988;DHT22;9119;50.932;5.342;2023-07-22T01:39:11;15.20;99.90
17988;DHT22;9119;50.932;5.342;2023-07-22T01:41:37;15.30;99.90
17988;DHT22;9119;50.932;5.342;2023-07-22T01:44:03;15.30;99.90
17988;DHT22;9119;50.932;5.342;2023-07-22T01:46:28;15.40;99.90
17988;DHT22;9119;50.932;5.342;2023-07-22T01:48:55;15.40;99.90
17988;DHT22;9119;50.932;5.342;2023-07-22T01:51:21;15.50;99.90
17988;DHT22;9119;50.932;5.342;2023-07-22T01:53:47;15.60;99.90
17988;DHT22;9119;50.932;5.342;2023-07-22T01:56:12;15.60;99.90
17988;DHT22;9119;50.932;5.342;2023-07-22T01:58:38;15.50;99.90
17988;DHT22;9119;50.932;5.342;2023-07-22T02:01:04;15.40;99.90
17988;DHT22;9119;50.932;5.342;2023-07-22T02:03:30;15.30;99.90
17988;DHT22;9119;50.932;5.342;2023-07-22T02:06:04;15.20;99.90
17988;DHT22;9119;50.932;5.342;2023-07-22T02:08:29;15.30;99.90
17988;DHT22;9119;50.932;5.342;2023-07-22T02:11:01;15.30;99.90
17988;DHT22;9119;50.932;5.342;2023-07-22T02:13:28;15.30;99.90
17988;DHT22;9119;50.932;5.342;2023-07-22T02:15:53;15.30;99.90
17988;DHT22;9119;50.932;5.342;2023-07-22T02:18:19;15.40;99.90
17988;DHT22;9119;50.932;5.342;2023-07-22T02:20:45;15.40;99.90
17988;DHT22;9119;50.932;5.342;2023-07-22T02:23:11;15.40;99.90
17988;DHT22;9119;50.932;5.342;2023-07-22T02:25:36;15.30;99.90
17988;DHT22;9119;50.932;5.342;2023-07-22T02:28:02;15.20;99.90
17988;DHT22;9119;50.932;5.342;2023-07-22T02:30:28;15.20;99.90
17988;DHT22;9119;50.932;5.342;2023-07-22T02:32:53;15.20;99.90
17988;DHT22;9119;50.932;5.342;2023-07-22T02:35:19;15.10;99.90
17988;DHT22;9119;50.932;5.342;2023-07-22T02:37:45;15.10;99.90
17988;DHT22;9119;50.932;5.342;2023-07-22T02:40:10;15.10;99.90
17988;DHT22;9119;50.932;5.342;2023-07-22T02:42:37;15.00;99.90
17988;DHT22;9119;50.932;5.342;2023-07-22T02:45:03;15.00;99.90
17988;DHT22;9119;50.932;5.342;2023-07-22T02:47:38;15.00;99.90
17988;DHT22;9119;50.932;5.342;2023-07-22T02:50:07;15.00;99.90
17988;DHT22;9119;50.932;5.342;2023-07-22T02:52:34;14.90;99.90
17988;DHT22;9119;50.932;5.342;2023-07-22T02:55:15;14.90;99.90
17988;DHT22;9119;50.932;5.342;2023-07-22T02:57:42;14.80;99.90
17988;DHT22;9119;50.932;5.342;2023-07-22T03:00:08;14.70;99.90
17988;DHT22;9119;50.932;5.342;2023-07-22T03:02:38;14.60;99.90
17988;DHT22;9119;50.932;5.342;2023-07-22T03:05:05;14.60;99.90
17988;DHT22;9119;50.932;5.342;2023-07-22T03:07:37;14.70;99.90
17988;DHT22;9119;50.932;5.342;2023-07-22T03:10:06;14.70;99.90
17988;DHT22;9119;50.932;5.342;2023-07-22T03:12:33;14.70;99.90
17988;DHT22;9119;50.932;5.342;2023-07-22T03:14:58;14.70;99.90
17988;DHT22;9119;50.932;5.342;2023-07-22T03:17:24;14.70;99.90
17988;DHT22;9119;50.932;5.342;2023-07-22T03:19:50;14.70;99.90
17988;DHT22;9119;50.932;5.342;2023-07-22T03:22:17;14.80;99.90
17988;DHT22;9119;50.932;5.342;2023-07-22T03:24:46;14.80;99.90
17988;DHT22;9119;50.932;5.342;2023-07-22T03:27:12;14.80;99.90
17988;DHT22;9119;50.932;5.342;2023-07-22T03:29:39;14.70;99.90
17988;DHT22;9119;50.932;5.342;2023-07-22T03:32:05;14.60;99.90
17988;DHT22;9119;50.932;5.342;2023-07-22T03:34:31;14.60;99.90
17988;DHT22;9119;50.932;5.342;2023-07-22T03:36:57;14.50;99.90
17988;DHT22;9119;50.932;5.342;2023-07-22T03:39:24;14.60;99.90
17988;DHT22;9119;50.932;5.342;2023-07-22T03:41:50;14.70;99.90
17988;DHT22;9119;50.932;5.342;2023-07-22T03:44:15;14.60;99.90
17988;DHT22;9119;50.932;5.342;2023-07-22T03:46:41;14.70;99.90
17988;DHT22;9119;50.932;5.342;2023-07-22T03:49:07;14.70;99.90
17988;DHT22;9119;50.932;5.342;2023-07-22T03:51:33;14.70;99.90
17988;DHT22;9119;50.932;5.342;2023-07-22T03:53:59;14.60;99.90
17988;DHT22;9119;50.932;5.342;2023-07-22T03:56:25;14.70;99.90
17988;DHT22;9119;50.932;5.342;2023-07-22T03:58:51;14.70;99.90
17988;DHT22;9119;50.932;5.342;2023-07-22T04:01:17;14.80;99.90
17988;DHT22;9119;50.932;5.342;2023-07-22T04:03:43;14.70;99.90
17988;DHT22;9119;50.932;5.342;2023-07-22T04:06:09;14.70;99.90
17988;DHT22;9119;50.932;5.342;2023-07-22T04:08:34;14.70;99.90
17988;DHT22;9119;50.932;5.342;2023-07-22T04:11:00;14.80;99.90
17988;DHT22;9119;50.932;5.342;2023-07-22T04:13:26;14.80;99.90
17988;DHT22;9119;50.932;5.342;2023-07-22T04:15:52;14.70;99.90
17988;DHT22;9119;50.932;5.342;2023-07-22T04:18:19;14.80;99.90
17988;DHT22;9119;50.932;5.342;2023-07-22T04:20:45;14.70;99.90
17988;DHT22;9119;50.932;5.342;2023-07-22T04:23:12;14.70;99.90
17988;DHT22;9119;50.932;5.342;2023-07-22T04:25:44;14.60;99.90
17988;DHT22;9119;50.932;5.342;2023-07-22T04:28:10;14.50;99.90
17988;DHT22;9119;50.932;5.342;2023-07-22T04:30:37;14.40;99.90
17988;DHT22;9119;50.932;5.342;2023-07-22T04:33:04;14.40;99.90
17988;DHT22;9119;50.932;5.342;2023-07-22T04:35:36;14.40;99.90
17988;DHT22;9119;50.932;5.342;2023-07-22T04:38:02;14.30;99.90
17988;DHT22;9119;50.932;5.342;2023-07-22T04:40:29;14.30;99.90
17988;DHT22;9119;50.932;5.342;2023-07-22T04:42:56;14.30;99.90
17988;DHT22;9119;50.932;5.342;2023-07-22T04:45:25;14.30;99.90
17988;DHT22;9119;50.932;5.342;2023-07-22T04:47:51;14.30;99.90
17988;DHT22;9119;50.932;5.342;2023-07-22T04:50:17;14.40;99.90
17988;DHT22;9119;50.932;5.342;2023-07-22T04:52:45;14.30;99.90
17988;DHT22;9119;50.932;5.342;2023-07-22T04:55:11;14.20;99.90
17988;DHT22;9119;50.932;5.342;2023-07-22T04:57:41;14.30;99.90
17988;DHT22;9119;50.932;5.342;2023-07-22T05:00:10;14.20;99.90
17988;DHT22;9119;50.932;5.342;2023-07-22T05:02:39;14.10;99.90
17988;DHT22;9119;50.932;5.342;2023-07-22T05:05:05;14.00;99.90
17988;DHT22;9119;50.932;5.342;2023-07-22T05:07:30;14.00;99.90
17988;DHT22;9119;50.932;5.342;2023-07-22T05:09:56;14.00;99.90
17988;DHT22;9119;50.932;5.342;2023-07-22T05:12:22;14.20;99.90
17988;DHT22;9119;50.932;5.342;2023-07-22T05:14:48;14.20;99.90
17988;DHT22;9119;50.932;5.342;2023-07-22T05:17:13;14.30;99.90
17988;DHT22;9119;50.932;5.342;2023-07-22T05:19:39;14.30;99.90
17988;DHT22;9119;50.932;5.342;2023-07-22T05:22:05;14.40;99.90
17988;DHT22;9119;50.932;5.342;2023-07-22T05:24:31;14.50;99.90
17988;DHT22;9119;50.932;5.342;2023-07-22T05:26:56;14.50;99.90
17988;DHT22;9119;50.932;5.342;2023-07-22T05:29:22;14.70;99.90
17988;DHT22;9119;50.932;5.342;2023-07-22T05:31:48;14.80;99.90
17988;DHT22;9119;50.932;5.342;2023-07-22T05:34:13;14.70;99.90
17988;DHT22;9119;50.932;5.342;2023-07-22T05:36:40;14.80;99.90
17988;DHT22;9119;50.932;5.342;2023-07-22T05:39:05;14.80;99.90
17988;DHT22;9119;50.932;5.342;2023-07-22T05:41:33;14.90;99.90
17988;DHT22;9119;50.932;5.342;2023-07-22T05:43:59;14.90;99.90
17988;DHT22;9119;50.932;5.342;2023-07-22T05:46:24;15.00;99.90
17988;DHT22;9119;50.932;5.342;2023-07-22T05:48:50;15.00;99.90
17988;DHT22;9119;50.932;5.342;2023-07-22T05:51:16;15.00;99.90
17988;DHT22;9119;50.932;5.342;2023-07-22T05:53:42;15.00;99.90
17988;DHT22;9119;50.932;5.342;2023-07-22T05:56:08;15.00;99.90
17988;DHT22;9119;50.932;5.342;2023-07-22T05:58:34;15.00;99.90
17988;DHT22;9119;50.932;5.342;2023-07-22T06:01:00;15.00;99.90
17988;DHT22;9119;50.932;5.342;2023-07-22T06:03:25;15.00;99.90
17988;DHT22;9119;50.932;5.342;2023-07-22T06:05:51;15.20;99.90
17988;DHT22;9119;50.932;5.342;2023-07-22T06:08:17;15.40;99.90
17988;DHT22;9119;50.932;5.342;2023-07-22T06:10:42;15.50;99.90
17988;DHT22;9119;50.932;5.342;2023-07-22T06:13:08;15.60;99.90
17988;DHT22;9119;50.932;5.342;2023-07-22T06:15:34;15.70;99.90
17988;DHT22;9119;50.932;5.342;2023-07-22T06:18:03;15.80;99.90
17988;DHT22;9119;50.932;5.342;2023-07-22T06:20:33;15.90;99.90
17988;DHT22;9119;50.932;5.342;2023-07-22T06:22:58;16.00;99.90
17988;DHT22;9119;50.932;5.342;2023-07-22T06:25:24;16.20;99.90
17988;DHT22;9119;50.932;5.342;2023-07-22T06:27:50;16.20;99.90
17988;DHT22;9119;50.932;5.342;2023-07-22T06:30:15;16.30;99.90
17988;DHT22;9119;50.932;5.342;2023-07-22T06:32:41;16.50;99.90
17988;DHT22;9119;50.932;5.342;2023-07-22T06:35:07;16.40;99.90
17988;DHT22;9119;50.932;5.342;2023-07-22T06:37:33;16.40;99.90
17988;DHT22;9119;50.932;5.342;2023-07-22T06:39:59;16.50;99.90
17988;DHT22;9119;50.932;5.342;2023-07-22T06:42:25;16.50;99.90
17988;DHT22;9119;50.932;5.342;2023-07-22T06:44:51;16.60;99.90
17988;DHT22;9119;50.932;5.342;2023-07-22T06:47:17;16.70;99.90
17988;DHT22;9119;50.932;5.342;2023-07-22T06:49:42;16.80;99.90
17988;DHT22;9119;50.932;5.342;2023-07-22T06:52:08;16.80;99.90
17988;DHT22;9119;50.932;5.342;2023-07-22T06:54:35;16.80;99.90
17988;DHT22;9119;50.932;5.342;2023-07-22T06:57:00;17.00;99.90
17988;DHT22;9119;50.932;5.342;2023-07-22T06:59:26;17.00;99.90
17988;DHT22;9119;50.932;5.342;2023-07-22T07:01:52;17.10;99.90
17988;DHT22;9119;50.932;5.342;2023-07-22T07:04:18;17.10;99.90
17988;DHT22;9119;50.932;5.342;2023-07-22T07:06:44;17.10;99.90
17988;DHT22;9119;50.932;5.342;2023-07-22T07:09:11;17.30;99.90
17988;DHT22;9119;50.932;5.342;2023-07-22T07:11:37;17.50;99.90
17988;DHT22;9119;50.932;5.342;2023-07-22T07:14:02;17.70;99.90
17988;DHT22;9119;50.932;5.342;2023-07-22T07:16:30;18.00;99.90
17988;DHT22;9119;50.932;5.342;2023-07-22T07:18:57;18.00;99.90
17988;DHT22;9119;50.932;5.342;2023-07-22T07:21:23;18.00;99.90
17988;DHT22;9119;50.932;5.342;2023-07-22T07:23:49;17.90;99.90
17988;DHT22;9119;50.932;5.342;2023-07-22T07:26:15;18.00;99.90
17988;DHT22;9119;50.932;5.342;2023-07-22T07:28:41;17.90;99.90
17988;DHT22;9119;50.932;5.342;2023-07-22T07:31:07;17.90;99.90
17988;DHT22;9119;50.932;5.342;2023-07-22T07:33:33;18.00;99.90
17988;DHT22;9119;50.932;5.342;2023-07-22T07:35:59;18.10;99.90
17988;DHT22;9119;50.932;5.342;2023-07-22T07:38:25;18.20;99.90
17988;DHT22;9119;50.932;5.342;2023-07-22T07:40:56;18.20;99.90
17988;DHT22;9119;50.932;5.342;2023-07-22T07:43:22;18.00;99.90
17988;DHT22;9119;50.932;5.342;2023-07-22T07:45:48;17.90;99.90
17988;DHT22;9119;50.932;5.342;2023-07-22T07:48:13;17.90;99.90
17988;DHT22;9119;50.932;5.342;2023-07-22T07:50:39;18.00;99.90
17988;DHT22;9119;50.932;5.342;2023-07-22T07:53:05;18.00;99.90
17988;DHT22;9119;50.932;5.342;2023-07-22T07:55:30;18.10;99.90
17988;DHT22;9119;50.932;5.342;2023-07-22T07:57:56;18.20;99.90
17988;DHT22;9119;50.932;5.342;2023-07-22T08:00:21;18.20;99.90
17988;DHT22;9119;50.932;5.342;2023-07-22T08:02:47;18.20;99.90
17988;DHT22;9119;50.932;5.342;2023-07-22T08:05:13;18.30;99.90
17988;DHT22;9119;50.932;5.342;2023-07-22T08:07:38;18.30;99.90
17988;DHT22;9119;50.932;5.342;2023-07-22T08:10:05;18.50;99.90
17988;DHT22;9119;50.932;5.342;2023-07-22T08:12:33;18.30;99.90
17988;DHT22;9119;50.932;5.342;2023-07-22T08:14:59;18.20;99.90
17988;DHT22;9119;50.932;5.342;2023-07-22T08:17:25;18.20;99.90
17988;DHT22;9119;50.932;5.342;2023-07-22T08:19:51;18.30;99.90
17988;DHT22;9119;50.932;5.342;2023-07-22T08:22:16;18.60;99.90
17988;DHT22;9119;50.932;5.342;2023-07-22T08:24:43;18.70;99.90
17988;DHT22;9119;50.932;5.342;2023-07-22T08:27:09;18.90;99.90
17988;DHT22;9119;50.932;5.342;2023-07-22T08:29:34;19.20;99.90
17988;DHT22;9119;50.932;5.342;2023-07-22T08:32:00;19.20;99.90
17988;DHT22;9119;50.932;5.342;2023-07-22T08:34:26;19.30;99.90
17988;DHT22;9119;50.932;5.342;2023-07-22T08:36:52;19.50;99.90
17988;DHT22;9119;50.932;5.342;2023-07-22T08:39:18;19.60;99.90
17988;DHT22;9119;50.932;5.342;2023-07-22T08:41:47;19.80;99.90
17988;DHT22;9119;50.932;5.342;2023-07-22T08:44:14;19.70;99.90
17988;DHT22;9119;50.932;5.342;2023-07-22T08:46:43;19.50;99.90
17988;DHT22;9119;50.932;5.342;2023-07-22T08:49:10;19.40;99.90
17988;DHT22;9119;50.932;5.342;2023-07-22T08:51:36;19.50;99.90
17988;DHT22;9119;50.932;5.342;2023-07-22T08:54:03;19.40;99.90
17988;DHT22;9119;50.932;5.342;2023-07-22T08:56:29;19.20;99.90
17988;DHT22;9119;50.932;5.342;2023-07-22T08:58:55;19.10;99.90
17988;DHT22;9119;50.932;5.342;2023-07-22T09:01:22;19.20;99.90
17988;DHT22;9119;50.932;5.342;2023-07-22T09:03:49;19.40;99.90
17988;DHT22;9119;50.932;5.342;2023-07-22T09:06:21;19.30;99.90
17988;DHT22;9119;50.932;5.342;2023-07-22T09:08:47;19.40;99.90
17988;DHT22;9119;50.932;5.342;2023-07-22T09:11:13;19.70;99.90
17988;DHT22;9119;50.932;5.342;2023-07-22T09:13:40;20.00;99.90
17988;DHT22;9119;50.932;5.342;2023-07-22T09:16:08;20.20;99.90
17988;DHT22;9119;50.932;5.342;2023-07-22T09:18:34;20.30;99.90
17988;DHT22;9119;50.932;5.342;2023-07-22T09:21:00;20.10;99.90
17988;DHT22;9119;50.932;5.342;2023-07-22T09:23:35;20.10;99.90
17988;DHT22;9119;50.932;5.342;2023-07-22T09:26:11;20.00;99.90
17988;DHT22;9119;50.932;5.342;2023-07-22T09:28:51;20.30;99.90
17988;DHT22;9119;50.932;5.342;2023-07-22T09:31:18;20.80;99.90
17988;DHT22;9119;50.932;5.342;2023-07-22T09:33:44;20.90;99.90
17988;DHT22;9119;50.932;5.342;2023-07-22T09:36:10;20.80;99.90
17988;DHT22;9119;50.932;5.342;2023-07-22T09:38:36;20.80;99.90
17988;DHT22;9119;50.932;5.342;2023-07-22T09:41:02;20.70;99.90
17988;DHT22;9119;50.932;5.342;2023-07-22T09:43:30;20.70;99.90
17988;DHT22;9119;50.932;5.342;2023-07-22T09:45:56;20.90;99.90
17988;DHT22;9119;50.932;5.342;2023-07-22T09:48:30;20.80;99.90
17988;DHT22;9119;50.932;5.342;2023-07-22T09:51:04;21.00;99.90
17988;DHT22;9119;50.932;5.342;2023-07-22T09:53:30;21.50;99.90
17988;DHT22;9119;50.932;5.342;2023-07-22T09:55:55;22.00;99.90
17988;DHT22;9119;50.932;5.342;2023-07-22T09:58:29;22.30;99.90
17988;DHT22;9119;50.932;5.342;2023-07-22T10:00:56;22.80;99.90
17988;DHT22;9119;50.932;5.342;2023-07-22T10:03:23;23.00;99.90
17988;DHT22;9119;50.932;5.342;2023-07-22T10:05:54;22.80;99.90
17988;DHT22;9119;50.932;5.342;2023-07-22T10:08:21;22.70;99.90
17988;DHT22;9119;50.932;5.342;2023-07-22T10:10:51;22.30;99.90
17988;DHT22;9119;50.932;5.342;2023-07-22T10:13:19;22.60;99.90
17988;DHT22;9119;50.932;5.342;2023-07-22T10:15:45;22.90;99.90
17988;DHT22;9119;50.932;5.342;2023-07-22T10:18:11;23.30;99.90
17988;DHT22;9119;50.932;5.342;2023-07-22T10:20:38;22.90;99.90
17988;DHT22;9119;50.932;5.342;2023-07-22T10:23:06;22.90;99.90
17988;DHT22;9119;50.932;5.342;2023-07-22T10:25:34;23.40;99.90
17988;DHT22;9119;50.932;5.342;2023-07-22T10:28:00;23.80;99.90
17988;DHT22;9119;50.932;5.342;2023-07-22T10:30:26;24.30;99.90
17988;DHT22;9119;50.932;5.342;2023-07-22T10:32:53;24.00;99.90
17988;DHT22;9119;50.932;5.342;2023-07-22T10:37:55;24.20;99.90
17988;DHT22;9119;50.932;5.342;2023-07-22T10:40:27;23.60;99.90
17988;DHT22;9119;50.932;5.342;2023-07-22T10:43:03;23.40;99.90
17988;DHT22;9119;50.932;5.342;2023-07-22T10:45:32;23.50;99.90
17988;DHT22;9119;50.932;5.342;2023-07-22T10:48:12;23.70;99.90
17988;DHT22;9119;50.932;5.342;2023-07-22T10:50:46;23.80;99.90
17988;DHT22;9119;50.932;5.342;2023-07-22T10:53:33;23.60;99.90
17988;DHT22;9119;50.932;5.342;2023-07-22T11:04:23;25.40;99.90
17988;DHT22;9119;50.932;5.342;2023-07-22T11:07:05;25.10;99.90
17988;DHT22;9119;50.932;5.342;2023-07-22T11:12:02;24.50;99.90
17988;DHT22;9119;50.932;5.342;2023-07-22T11:14:29;24.90;99.90
17988;DHT22;9119;50.932;5.342;2023-07-22T11:17:00;25.10;99.90
17988;DHT22;9119;50.932;5.342;2023-07-22T11:19:26;24.60;99.90
17988;DHT22;9119;50.932;5.342;2023-07-22T11:21:53;24.80;99.90
17988;DHT22;9119;50.932;5.342;2023-07-22T11:24:20;25.60;99.90
17988;DHT22;9119;50.932;5.342;2023-07-22T11:26:46;25.80;99.90
17988;DHT22;9119;50.932;5.342;2023-07-22T11:29:13;25.50;99.90
17988;DHT22;9119;50.932;5.342;2023-07-22T11:31:47;25.30;99.90
17988;DHT22;9119;50.932;5.342;2023-07-22T11:34:14;25.30;99.90
17988;DHT22;9119;50.932;5.342;2023-07-22T11:36:41;25.20;99.90
17988;DHT22;9119;50.932;5.342;2023-07-22T11:39:10;25.30;99.90
17988;DHT22;9119;50.932;5.342;2023-07-22T11:41:37;25.40;99.90
17988;DHT22;9119;50.932;5.342;2023-07-22T11:44:05;25.60;99.90
17988;DHT22;9119;50.932;5.342;2023-07-22T11:46:35;26.00;99.90
17988;DHT22;9119;50.932;5.342;2023-07-22T11:49:01;25.90;99.90
17988;DHT22;9119;50.932;5.342;2023-07-22T11:51:27;25.80;99.90
17988;DHT22;9119;50.932;5.342;2023-07-22T11:53:54;26.30;99.90
17988;DHT22;9119;50.932;5.342;2023-07-22T11:56:28;26.30;99.90
17988;DHT22;9119;50.932;5.342;2023-07-22T11:58:57;26.40;99.90
17988;DHT22;9119;50.932;5.342;2023-07-22T12:01:23;26.70;99.90
17988;DHT22;9119;50.932;5.342;2023-07-22T12:03:54;26.30;99.90
17988;DHT22;9119;50.932;5.342;2023-07-22T12:06:20;26.80;99.90
17988;DHT22;9119;50.932;5.342;2023-07-22T12:08:52;26.70;99.90
17988;DHT22;9119;50.932;5.342;2023-07-22T12:13:43;26.30;99.90
17988;DHT22;9119;50.932;5.342;2023-07-22T12:16:12;25.90;99.90
17988;DHT22;9119;50.932;5.342;2023-07-22T12:18:55;25.40;99.90
17988;DHT22;9119;50.932;5.342;2023-07-22T12:21:21;25.50;99.90
17988;DHT22;9119;50.932;5.342;2023-07-22T12:23:47;25.60;99.90
17988;DHT22;9119;50.932;5.342;2023-07-22T12:26:13;26.40;99.90
17988;DHT22;9119;50.932;5.342;2023-07-22T12:28:39;26.10;99.90
17988;DHT22;9119;50.932;5.342;2023-07-22T12:31:04;26.10;99.90
17988;DHT22;9119;50.932;5.342;2023-07-22T12:33:30;25.80;99.90
17988;DHT22;9119;50.932;5.342;2023-07-22T12:35:57;25.40;99.90
17988;DHT22;9119;50.932;5.342;2023-07-22T12:38:23;25.40;99.90
17988;DHT22;9119;50.932;5.342;2023-07-22T12:40:49;25.00;99.90
17988;DHT22;9119;50.932;5.342;2023-07-22T12:43:14;24.50;99.90
17988;DHT22;9119;50.932;5.342;2023-07-22T12:45:40;25.30;99.90
17988;DHT22;9119;50.932;5.342;2023-07-22T12:48:06;26.30;99.90
17988;DHT22;9119;50.932;5.342;2023-07-22T12:50:32;26.20;99.90
17988;DHT22;9119;50.932;5.342;2023-07-22T12:52:58;25.80;99.90
17988;DHT22;9119;50.932;5.342;2023-07-22T12:55:24;26.40;99.90
17988;DHT22;9119;50.932;5.342;2023-07-22T12:57:50;27.30;99.90
17988;DHT22;9119;50.932;5.342;2023-07-22T13:00:16;27.60;99.90
17988;DHT22;9119;50.932;5.342;2023-07-22T13:02:42;27.60;99.90
17988;DHT22;9119;50.932;5.342;2023-07-22T13:05:07;27.10;99.90
17988;DHT22;9119;50.932;5.342;2023-07-22T13:07:33;27.30;99.90
17988;DHT22;9119;50.932;5.342;2023-07-22T13:10:02;27.40;99.90
17988;DHT22;9119;50.932;5.342;2023-07-22T13:12:32;26.90;99.90
17988;DHT22;9119;50.932;5.342;2023-07-22T13:14:58;26.40;99.90
17988;DHT22;9119;50.932;5.342;2023-07-22T13:17:23;26.30;99.90
17988;DHT22;9119;50.932;5.342;2023-07-22T13:19:49;25.50;99.90
17988;DHT22;9119;50.932;5.342;2023-07-22T13:22:14;25.00;99.90
17988;DHT22;9119;50.932;5.342;2023-07-22T13:24:40;24.90;99.90
17988;DHT22;9119;50.932;5.342;2023-07-22T13:27:06;25.00;99.90
17988;DHT22;9119;50.932;5.342;2023-07-22T13:29:33;25.20;99.90
17988;DHT22;9119;50.932;5.342;2023-07-22T13:31:58;24.90;99.90
17988;DHT22;9119;50.932;5.342;2023-07-22T13:34:24;24.70;99.90
17988;DHT22;9119;50.932;5.342;2023-07-22T13:36:51;25.20;99.90
17988;DHT22;9119;50.932;5.342;2023-07-22T13:39:16;26.20;99.90
17988;DHT22;9119;50.932;5.342;2023-07-22T13:41:42;26.40;99.90
17988;DHT22;9119;50.932;5.342;2023-07-22T13:44:08;26.50;99.90
17988;DHT22;9119;50.932;5.342;2023-07-22T13:46:33;26.90;99.90
17988;DHT22;9119;50.932;5.342;2023-07-22T13:48:59;27.20;99.90
17988;DHT22;9119;50.932;5.342;2023-07-22T13:51:24;26.90;99.90
17988;DHT22;9119;50.932;5.342;2023-07-22T13:53:50;26.30;99.90
17988;DHT22;9119;50.932;5.342;2023-07-22T13:56:17;25.90;99.90
17988;DHT22;9119;50.932;5.342;2023-07-22T13:58:43;26.70;99.90
17988;DHT22;9119;50.932;5.342;2023-07-22T14:01:09;26.80;99.90
17988;DHT22;9119;50.932;5.342;2023-07-22T14:03:35;25.80;99.90
17988;DHT22;9119;50.932;5.342;2023-07-22T14:06:00;25.80;99.90
17988;DHT22;9119;50.932;5.342;2023-07-22T14:08:26;25.50;99.90
17988;DHT22;9119;50.932;5.342;2023-07-22T14:10:52;25.50;99.90
17988;DHT22;9119;50.932;5.342;2023-07-22T14:13:18;24.80;99.90
17988;DHT22;9119;50.932;5.342;2023-07-22T14:15:43;24.90;99.90
17988;DHT22;9119;50.932;5.342;2023-07-22T14:18:09;25.00;99.90
17988;DHT22;9119;50.932;5.342;2023-07-22T14:20:35;25.00;99.90
17988;DHT22;9119;50.932;5.342;2023-07-22T14:23:01;25.30;99.90
17988;DHT22;9119;50.932;5.342;2023-07-22T14:25:26;25.40;99.90
17988;DHT22;9119;50.932;5.342;2023-07-22T14:27:52;25.70;99.90
17988;DHT22;9119;50.932;5.342;2023-07-22T14:30:18;25.30;99.90
17988;DHT22;9119;50.932;5.342;2023-07-22T14:32:43;25.20;99.90
17988;DHT22;9119;50.932;5.342;2023-07-22T14:35:09;25.00;99.90
17988;DHT22;9119;50.932;5.342;2023-07-22T14:37:36;24.90;99.90
17988;DHT22;9119;50.932;5.342;2023-07-22T14:40:03;25.40;99.90
17988;DHT22;9119;50.932;5.342;2023-07-22T14:42:30;25.80;99.90
17988;DHT22;9119;50.932;5.342;2023-07-22T14:44:56;25.90;99.90
17988;DHT22;9119;50.932;5.342;2023-07-22T14:47:21;26.00;99.90
17988;DHT22;9119;50.932;5.342;2023-07-22T14:49:47;25.80;99.90
17988;DHT22;9119;50.932;5.342;2023-07-22T14:52:13;25.70;99.90
17988;DHT22;9119;50.932;5.342;2023-07-22T14:54:38;25.30;99.90
17988;DHT22;9119;50.932;5.342;2023-07-22T14:57:04;25.50;99.90
17988;DHT22;9119;50.932;5.342;2023-07-22T14:59:30;25.30;99.90
17988;DHT22;9119;50.932;5.342;2023-07-22T15:01:55;25.20;99.90
17988;DHT22;9119;50.932;5.342;2023-07-22T15:04:21;25.20;99.90
17988;DHT22;9119;50.932;5.342;2023-07-22T15:06:47;25.30;99.90
17988;DHT22;9119;50.932;5.342;2023-07-22T15:09:13;25.40;99.90
17988;DHT22;9119;50.932;5.342;2023-07-22T15:11:38;25.10;99.90
17988;DHT22;9119;50.932;5.342;2023-07-22T15:14:04;25.40;99.90
17988;DHT22;9119;50.932;5.342;2023-07-22T15:16:30;25.30;99.90
17988;DHT22;9119;50.932;5.342;2023-07-22T15:18:56;24.90;99.90
17988;DHT22;9119;50.932;5.342;2023-07-22T15:21:22;24.30;99.90
17988;DHT22;9119;50.932;5.342;2023-07-22T15:23:48;24.00;99.90
17988;DHT22;9119;50.932;5.342;2023-07-22T15:26:14;24.00;99.90
17988;DHT22;9119;50.932;5.342;2023-07-22T15:28:40;24.00;99.90
17988;DHT22;9119;50.932;5.342;2023-07-22T15:31:06;24.30;99.90
17988;DHT22;9119;50.932;5.342;2023-07-22T15:33:34;24.20;99.90
17988;DHT22;9119;50.932;5.342;2023-07-22T15:36:01;24.10;99.90
17988;DHT22;9119;50.932;5.342;2023-07-22T15:38:26;24.10;99.90
17988;DHT22;9119;50.932;5.342;2023-07-22T15:40:53;24.10;99.90
17988;DHT22;9119;50.932;5.342;2023-07-22T15:43:19;24.10;99.90
17988;DHT22;9119;50.932;5.342;2023-07-22T15:45:45;24.00;99.90
17988;DHT22;9119;50.932;5.342;2023-07-22T15:48:10;24.10;99.90
17988;DHT22;9119;50.932;5.342;2023-07-22T15:50:36;24.30;99.90
17988;DHT22;9119;50.932;5.342;2023-07-22T15:53:02;24.40;99.90
17988;DHT22;9119;50.932;5.342;2023-07-22T15:55:28;24.50;99.90
17988;DHT22;9119;50.932;5.342;2023-07-22T15:57:53;24.40;99.90